^^
MeteoGriva-Weather Station Historical Data
Daily Summary for August 03, 2020 Units:  Metric    English   Both
Daily Weekly Monthly Yearly Custom
  High: Low: Average:
Temperature: 29.1 °C 21.3 °C 25 °C
Dew Point: 23.4 °C 16.5 °C 20.7 °C
Humidity: 92% 65.8% 78%
Wind Speed: 20.5km/h 0km/h 5.8km/h
Wind Gust: 36.4km/h - -
Wind- - South
Pressure: 1010.5 hPa 1004.7 hPa -
Precipitation: 0.0 mm    
Historical Graphs
 
 
Tabular Data for August 03, 2020
Time Temperature Dew Point Pressure Wind Wind Speed Wind Gust Humidity Rainfall Rate (Hourly) solar
00:04 24.1 °C 18.2 °C 1009.1 hPa SSW 1.3 km/h 12.2 km/h 69.3% 0.0 mm 0 W/m2
00:09 24.1 °C 18.3 °C 1009.1 hPa SSW 0.8 km/h 7.9 km/h 70% 0.0 mm 0 W/m2
00:14 24 °C 18.4 °C 1009.1 hPa Calm   4 km/h 70.7% 0.0 mm 0 W/m2
00:19 23.6 °C 18 °C 1009.1 hPa Calm     71% 0.0 mm 0 W/m2
00:24 23.4 °C 18 °C 1009.1 hPa Calm     71.8% 0.0 mm 0 W/m2
00:29 23.4 °C 17.9 °C 1009.1 hPa South 0.4 km/h 4 km/h 71.4% 0.0 mm 0 W/m2
00:34 23.4 °C 17.8 °C 1009.1 hPa Calm   4 km/h 71% 0.0 mm 0 W/m2
00:39 23.5 °C 17.8 °C 1009.5 hPa South 1.4 km/h 7.9 km/h 70.2% 0.0 mm 0 W/m2
00:44 23.6 °C 17.6 °C 1009.1 hPa South 1 km/h 12.2 km/h 69.2% 0.0 mm 0 W/m2
00:49 23.6 °C 17.9 °C 1009.1 hPa Calm     70.6% 0.0 mm 0 W/m2
00:54 23.5 °C 18.3 °C 1009.1 hPa Calm     72.2% 0.0 mm 0 W/m2
00:59 23.3 °C 18 °C 1009.1 hPa SSW 0.2 km/h 4 km/h 71.9% 0.0 mm 0 W/m2
01:04 23.2 °C 17.6 °C 1009.1 hPa Calm     71% 0.0 mm 0 W/m2
01:14 23.1 °C 17.8 °C 1009.1 hPa Calm     72% 0.0 mm 0 W/m2
01:19 23 °C 17.7 °C 1009.1 hPa Calm     71.6% 0.0 mm 0 W/m2
01:24 23 °C 17.7 °C 1009.1 hPa South 0.3 km/h 4 km/h 71.9% 0.0 mm 0 W/m2
01:29 23 °C 17.7 °C 1009.1 hPa Calm   4 km/h 72% 0.0 mm 0 W/m2
01:34 23.1 °C 17.7 °C 1009.1 hPa SW 0.1 km/h 4 km/h 71.9% 0.0 mm 0 W/m2
01:39 23.1 °C 17.7 °C 1009.1 hPa Calm   4 km/h 71.3% 0.0 mm 0 W/m2
01:44 23.1 °C 17.6 °C 1009.1 hPa Calm     71% 0.0 mm 0 W/m2
01:49 23.1 °C 17.6 °C 1009.1 hPa Calm   4 km/h 71% 0.0 mm 0 W/m2
01:54 23.1 °C 17.4 °C 1009.1 hPa South 0.2 km/h 4 km/h 70.2% 0.0 mm 0 W/m2
01:59 23.2 °C 17.2 °C 1009.1 hPa Calm   4 km/h 69.1% 0.0 mm 0 W/m2
02:04 23.3 °C 17.2 °C 1009.1 hPa South 0.4 km/h 7.9 km/h 68.6% 0.0 mm 0 W/m2
02:09 23.2 °C 17 °C 1009.1 hPa SSW 0.4 km/h 7.9 km/h 68.1% 0.0 mm 0 W/m2
02:14 23.3 °C 16.9 °C 1009.1 hPa Calm   4 km/h 67.3% 0.0 mm 0 W/m2
02:19 23.4 °C 16.7 °C 1009.1 hPa South 0.9 km/h 7.9 km/h 66.1% 0.0 mm 0 W/m2
02:24 23.5 °C 16.7 °C 1009.5 hPa South 0.2 km/h 7.9 km/h 65.8% 0.0 mm 0 W/m2
02:29 23.4 °C 17 °C 1009.5 hPa Calm   4 km/h 67.2% 0.0 mm 0 W/m2
02:34 23.4 °C 16.8 °C 1009.1 hPa South 0.3 km/h 4 km/h 66.2% 0.0 mm 0 W/m2
02:39 23.3 °C 16.7 °C 1009.5 hPa Calm   4 km/h 66% 0.0 mm 0 W/m2
02:44 23.3 °C 16.6 °C 1009.5 hPa South 0.6 km/h 7.9 km/h 66.2% 0.0 mm 0 W/m2
02:49 23.3 °C 16.6 °C 1009.1 hPa South 0.1 km/h 4 km/h 66.1% 0.0 mm 0 W/m2
02:54 23.2 °C 16.6 °C 1009.5 hPa Calm     66.3% 0.0 mm 0 W/m2
02:59 23.2 °C 16.6 °C 1009.1 hPa Calm     66.7% 0.0 mm 0 W/m2
03:04 23.1 °C 16.5 °C 1009.5 hPa Calm     66.8% 0.0 mm 0 W/m2
03:09 23 °C 16.9 °C 1009.5 hPa Calm     68.5% 0.0 mm 0 W/m2
03:14 22.9 °C 16.9 °C 1009.5 hPa Calm     69% 0.0 mm 0 W/m2
03:19 22.8 °C 16.8 °C 1009.5 hPa Calm     69% 0.0 mm 0 W/m2
03:24 22.6 °C 16.6 °C 1009.5 hPa Calm     69% 0.0 mm 0 W/m2
03:29 22.6 °C 16.8 °C 1009.5 hPa Calm     69.8% 0.0 mm 0 W/m2
03:34 22.6 °C 17.4 °C 1009.5 hPa Calm     72.3% 0.0 mm 0 W/m2
03:39 22.4 °C 17.3 °C 1009.5 hPa Calm     73% 0.0 mm 0 W/m2
03:44 22.1 °C 17 °C 1009.5 hPa Calm     73.2% 0.0 mm 0 W/m2
03:49 22.1 °C 17 °C 1009.5 hPa Calm     72.8% 0.0 mm 0 W/m2
03:54 22.1 °C 16.7 °C 1009.5 hPa Calm     71.8% 0.0 mm 0 W/m2
03:59 22.2 °C 17.9 °C 1009.1 hPa Calm     76.8% 0.0 mm 0 W/m2
04:04 22.3 °C 18.5 °C 1009.1 hPa Calm     79% 0.0 mm 0 W/m2
04:09 22.2 °C 19.2 °C 1009.1 hPa Calm     82.9% 0.0 mm 0 W/m2
04:14 22.2 °C 20.3 °C 1009.1 hPa Calm     88.9% 0.0 mm 0 W/m2
04:19 22.2 °C 20.1 °C 1009.1 hPa Calm     88.4% 0.0 mm 0 W/m2
04:24 22 °C 19.7 °C 1009.5 hPa Calm     86.7% 0.0 mm 0 W/m2
04:29 22 °C 19.5 °C 1009.5 hPa Calm     85.6% 0.0 mm 0 W/m2
04:34 22 °C 19.6 °C 1009.5 hPa Calm     86.4% 0.0 mm 0 W/m2
04:39 22 °C 19.4 °C 1009.8 hPa Calm     85.2% 0.0 mm 0 W/m2
04:44 22 °C 20.1 °C 1009.8 hPa Calm     88.9% 0.0 mm 0 W/m2
04:49 22 °C 20.5 °C 1009.8 hPa Calm     90.8% 0.0 mm 0 W/m2
04:54 21.9 °C 20.2 °C 1009.8 hPa Calm     90% 0.0 mm 0 W/m2
04:59 21.9 °C 19.8 °C 1009.8 hPa Calm     88.2% 0.0 mm 0 W/m2
05:04 21.8 °C 19.7 °C 1009.8 hPa Calm     88% 0.0 mm 0 W/m2
05:09 21.8 °C 19.8 °C 1009.8 hPa Calm     88.6% 0.0 mm 0 W/m2
05:14 21.8 °C 20.1 °C 1009.8 hPa Calm     90.2% 0.0 mm 0 W/m2
05:19 21.8 °C 20.3 °C 1009.8 hPa Calm     91% 0.0 mm 0 W/m2
05:24 21.8 °C 20.3 °C 1010.2 hPa Calm     91% 0.0 mm 0 W/m2
05:29 21.7 °C 20.3 °C 1010.2 hPa Calm     91.9% 0.0 mm 0 W/m2
05:34 21.8 °C 20.3 °C 1010.2 hPa Calm     91.7% 0.0 mm 0 W/m2
05:39 21.8 °C 20.4 °C 1010.2 hPa Calm     92% 0.0 mm 0 W/m2
05:44 21.7 °C 20.3 °C 1009.8 hPa Calm     91.6% 0.0 mm 0 W/m2
05:49 21.7 °C 20.2 °C 1010.2 hPa Calm     91% 0.0 mm 0 W/m2
05:54 21.7 °C 20.2 °C 1010.2 hPa Calm     91.2% 0.0 mm 0 W/m2
05:59 21.7 °C 20.3 °C 1010.2 hPa Calm     92% 0.0 mm 0 W/m2
06:04 21.8 °C 20.3 °C 1010.2 hPa Calm     91.1% 0.0 mm 0 W/m2
06:09 21.8 °C 20.3 °C 1010.2 hPa Calm     91.1% 0.0 mm 0 W/m2
06:14 21.7 °C 20.3 °C 1010.2 hPa Calm     92% 0.0 mm 0 W/m2
06:19 21.6 °C 20.1 °C 1010.2 hPa Calm     91.3% 0.0 mm 0 W/m2
06:24 21.3 °C 19.8 °C 1010.2 hPa Calm     90.9% 0.0 mm 0 W/m2
06:29 21.3 °C 19.8 °C 1010.2 hPa Calm     91.1% 0.0 mm 2 W/m2
06:34 21.3 °C 19.9 °C 1010.2 hPa Calm     91.7% 0.0 mm 5 W/m2
06:39 21.3 °C 19.8 °C 1010.2 hPa Calm     90.8% 0.0 mm 9 W/m2
06:44 21.4 °C 19.9 °C 1010.5 hPa Calm     91% 0.0 mm 17 W/m2
06:49 21.4 °C 19.9 °C 1010.5 hPa Calm     91% 0.0 mm 26 W/m2
06:54 21.4 °C 19.9 °C 1010.5 hPa Calm     91% 0.0 mm 41 W/m2
06:59 21.5 °C 19.9 °C 1010.5 hPa Calm     90.4% 0.0 mm 61 W/m2
07:04 21.8 °C 20.1 °C 1010.5 hPa Calm     89.9% 0.0 mm 79 W/m2
07:09 21.8 °C 19.9 °C 1010.5 hPa Calm     89% 0.0 mm 93 W/m2
07:14 21.9 °C 19.7 °C 1010.5 hPa Calm     87.7% 0.0 mm 108 W/m2
07:19 22.2 °C 19.7 °C 1010.2 hPa Calm     86% 0.0 mm 124 W/m2
07:24 23.5 °C 20.6 °C 1010.2 hPa Calm     83.9% 0.0 mm 140 W/m2
07:29 23.5 °C 20.4 °C 1010.2 hPa Calm     82.9% 0.0 mm 153 W/m2
07:34 23.6 °C 20.2 °C 1010.5 hPa Calm     81.6% 0.0 mm 169 W/m2
07:39 23.8 °C 20.3 °C 1010.5 hPa Calm     80.9% 0.0 mm 182 W/m2
07:44 23.7 °C 20.6 °C 1010.5 hPa Calm     83% 0.0 mm 192 W/m2
07:49 23.8 °C 20.3 °C 1010.5 hPa Calm     81.1% 0.0 mm 204 W/m2
07:54 23.8 °C 20.3 °C 1010.5 hPa Calm     81.1% 0.0 mm 214 W/m2
07:59 24 °C 19.9 °C 1010.5 hPa Calm     77.9% 0.0 mm 222 W/m2
08:04 24.7 °C 20.6 °C 1010.5 hPa Calm     77.7% 0.0 mm 230 W/m2
08:09 24.8 °C 20.4 °C 1010.5 hPa Calm     76.4% 0.0 mm 235 W/m2
08:14 24.8 °C 20.3 °C 1010.5 hPa Calm     76.1% 0.0 mm 236 W/m2
08:19 24.9 °C 20.3 °C 1010.5 hPa Calm     75.6% 0.0 mm 241 W/m2
08:24 25.2 °C 20.4 °C 1010.5 hPa Calm     74.9% 0.0 mm 253 W/m2
08:29 25.3 °C 20.2 °C 1010.5 hPa Calm     73.2% 0.0 mm 256 W/m2
08:34 25.5 °C 20.5 °C 1010.5 hPa Calm     74.1% 0.0 mm 259 W/m2
08:39 25.6 °C 20.7 °C 1010.5 hPa SSE 0.3 km/h 4 km/h 74.4% 0.0 mm 265 W/m2
08:44 26.3 °C 21.2 °C 1010.5 hPa SSE 0.2 km/h 4 km/h 73.2% 0.0 mm 272 W/m2
08:49 26.3 °C 21.3 °C 1010.5 hPa Calm     74.2% 0.0 mm 275 W/m2
08:54 26.3 °C 21.5 °C 1010.5 hPa Calm   4 km/h 75.2% 0.0 mm 281 W/m2
08:59 26.2 °C 21.8 °C 1010.5 hPa SE 0.5 km/h 4 km/h 77.2% 0.0 mm 286 W/m2
09:04 24.7 °C 20.8 °C 1010.5 hPa ENE 0.6 km/h 7.9 km/h 79% 0.0 mm 289 W/m2
09:09 24.6 °C 20.4 °C 1010.5 hPa Calm   4 km/h 77.3% 0.0 mm 295 W/m2
09:14 24.8 °C 20.4 °C 1010.5 hPa ESE 1.8 km/h 12.2 km/h 76.7% 0.0 mm 302 W/m2
09:19 25 °C 20.9 °C 1010.5 hPa East 3.6 km/h 12.2 km/h 78.1% 0.0 mm 313 W/m2
09:24 25.5 °C 21.4 °C 1010.5 hPa SE 1.4 km/h 12.2 km/h 77.9% 0.0 mm 323 W/m2
09:29 25.7 °C 21.4 °C 1010.5 hPa SSE 4 km/h 12.2 km/h 77.2% 0.0 mm 336 W/m2
09:34 25.7 °C 21.7 °C 1010.5 hPa SE 6.2 km/h 16.3 km/h 78.8% 0.0 mm 346 W/m2
09:39 25.8 °C 21.6 °C 1010.5 hPa SSE 2 km/h 16.3 km/h 77.6% 0.0 mm 356 W/m2
09:44 26.3 °C 22.1 °C 1010.2 hPa SE 2.6 km/h 12.2 km/h 77.8% 0.0 mm 375 W/m2
09:49 26.4 °C 22.3 °C 1010.5 hPa SE 3.5 km/h 12.2 km/h 78% 0.0 mm 382 W/m2
09:54 26.4 °C 22.5 °C 1010.5 hPa SE 5.7 km/h 16.3 km/h 79.2% 0.0 mm 392 W/m2
09:59 26.3 °C 22.8 °C 1010.5 hPa SSE 4.9 km/h 16.3 km/h 80.9% 0.0 mm 249 W/m2
10:04 25.4 °C 22.3 °C 1010.5 hPa SSE 3.7 km/h 16.3 km/h 83.1% 0.0 mm 148 W/m2
10:09 25.2 °C 22.4 °C 1010.5 hPa South 5 km/h 16.3 km/h 84.8% 0.0 mm 297 W/m2
10:14 25.1 °C 22.5 °C 1010.5 hPa South 6.5 km/h 12.2 km/h 85.9% 0.0 mm 122 W/m2
10:19 24.9 °C 22.3 °C 1010.5 hPa South 3.1 km/h 12.2 km/h 85.6% 0.0 mm 373 W/m2
10:24 24.8 °C 22.2 °C 1010.5 hPa South 7.1 km/h 16.3 km/h 85.9% 0.0 mm 137 W/m2
10:29 24.7 °C 22.2 °C 1010.5 hPa SSE 7.6 km/h 16.3 km/h 86% 0.0 mm 422 W/m2
10:34 24.8 °C 21.5 °C 1010.2 hPa South 3.9 km/h 16.3 km/h 81.9% 0.0 mm 453 W/m2
10:39 25 °C 21.3 °C 1010.5 hPa South 7.5 km/h 16.3 km/h 80% 0.0 mm 484 W/m2
10:44 25.5 °C 22.1 °C 1010.5 hPa South 5.3 km/h 12.2 km/h 81.7% 0.0 mm 214 W/m2
10:49 25.6 °C 22.3 °C 1010.2 hPa South 9.2 km/h 16.3 km/h 82% 0.0 mm 330 W/m2
10:54 25.6 °C 22.2 °C 1010.5 hPa South 8.2 km/h 20.1 km/h 81.6% 0.0 mm 211 W/m2
10:59 25.6 °C 21.9 °C 1010.2 hPa South 5.5 km/h 16.3 km/h 80.3% 0.0 mm 481 W/m2
11:04 26.2 °C 21.7 °C 1010.2 hPa SE 9.5 km/h 20.1 km/h 76.5% 0.0 mm 525 W/m2
11:09 26.4 °C 21.8 °C 1010.2 hPa South 8.2 km/h 20.1 km/h 75.7% 0.0 mm 536 W/m2
11:14 26.6 °C 21.3 °C 1010.2 hPa SSE 6.8 km/h 24.1 km/h 72.8% 0.0 mm 559 W/m2
11:19 26.8 °C 21.8 °C 1010.2 hPa South 9.7 km/h 24.1 km/h 73.8% 0.0 mm 510 W/m2
11:24 27.3 °C 22.5 °C 1010.2 hPa South 8.4 km/h 24.1 km/h 74.9% 0.0 mm 512 W/m2
11:29 27.4 °C 22.6 °C 1010.2 hPa SSW 9 km/h 20.1 km/h 75.1% 0.0 mm 512 W/m2
11:34 27.3 °C 22.5 °C 1009.8 hPa South 9.3 km/h 24.1 km/h 74.9% 0.0 mm 500 W/m2
11:39 27.3 °C 22.6 °C 1010.2 hPa SSE 11.3 km/h 20.1 km/h 75.6% 0.0 mm 507 W/m2
11:44 27.7 °C 22.8 °C 1009.8 hPa South 8.2 km/h 16.3 km/h 74.7% 0.0 mm 517 W/m2
11:49 27.9 °C 23.2 °C 1009.8 hPa South 8 km/h 20.1 km/h 75.4% 0.0 mm 511 W/m2
11:54 27.9 °C 22.9 °C 1009.8 hPa South 9.4 km/h 24.1 km/h 74.4% 0.0 mm 517 W/m2
11:59 27.9 °C 23.1 °C 1009.8 hPa South 9.2 km/h 24.1 km/h 75.1% 0.0 mm 512 W/m2
12:04 27.7 °C 22.7 °C 1009.5 hPa South 11 km/h 28 km/h 74.4% 0.0 mm 520 W/m2
12:09 27.5 °C 22.4 °C 1009.5 hPa South 10.2 km/h 28 km/h 73.7% 0.0 mm 513 W/m2
12:14 27.6 °C 22.4 °C 1009.5 hPa South 12.3 km/h 24.1 km/h 73.3% 0.0 mm 512 W/m2
12:19 27.7 °C 22.5 °C 1009.1 hPa SSE 14.1 km/h 28 km/h 73.3% 0.0 mm 510 W/m2
12:24 28 °C 22.6 °C 1009.1 hPa South 11.7 km/h 28 km/h 72.7% 0.0 mm 511 W/m2
12:29 28.2 °C 22.7 °C 1009.1 hPa South 12 km/h 24.1 km/h 72% 0.0 mm 514 W/m2
12:34 28.3 °C 22.6 °C 1009.1 hPa South 13.4 km/h 24.1 km/h 71.4% 0.0 mm 518 W/m2
12:39 28.2 °C 22.9 °C 1009.1 hPa South 16.5 km/h 28 km/h 73% 0.0 mm 515 W/m2
12:44 28.4 °C 22.9 °C 1009.1 hPa South 12.1 km/h 24.1 km/h 72.4% 0.0 mm 519 W/m2
12:49 28.5 °C 23.1 °C 1008.8 hPa South 10.6 km/h 24.1 km/h 72.3% 0.0 mm 522 W/m2
12:54 28.5 °C 23.2 °C 1009.1 hPa South 14.2 km/h 28 km/h 73.1% 0.0 mm 517 W/m2
12:59 28.4 °C 23.4 °C 1009.1 hPa SSE 14.7 km/h 24.1 km/h 74.6% 0.0 mm 517 W/m2
13:04 28.2 °C 23.3 °C 1008.8 hPa SSE 14.7 km/h 28 km/h 74.6% 0.0 mm 521 W/m2
13:09 28.2 °C 23.2 °C 1008.8 hPa South 12.5 km/h 28 km/h 74.6% 0.0 mm 531 W/m2
13:14 28.1 °C 23.1 °C 1008.8 hPa South 14.3 km/h 28 km/h 74.3% 0.0 mm 532 W/m2
13:19 28.1 °C 23.2 °C 1008.8 hPa South 15.4 km/h 32.3 km/h 75% 0.0 mm 529 W/m2
13:24 28.1 °C 23.3 °C 1008.5 hPa SSE 17.9 km/h 32.3 km/h 75% 0.0 mm 542 W/m2
13:29 28.1 °C 23.1 °C 1008.5 hPa South 16.4 km/h 32.3 km/h 74.4% 0.0 mm 544 W/m2
13:34 28.1 °C 22.9 °C 1008.5 hPa SSE 20.5 km/h 32.3 km/h 73.7% 0.0 mm 531 W/m2
13:39 28.1 °C 22.7 °C 1008.5 hPa South 14 km/h 28 km/h 72.8% 0.0 mm 528 W/m2
13:44 28.2 °C 22.7 °C 1008.5 hPa SSE 14.9 km/h 28 km/h 72% 0.0 mm 546 W/m2
13:49 28.2 °C 22.3 °C 1008.5 hPa South 14.3 km/h 32.3 km/h 70.7% 0.0 mm 545 W/m2
13:54 28.2 °C 22.5 °C 1008.1 hPa South 16.3 km/h 32.3 km/h 71.4% 0.0 mm 531 W/m2
13:59 28.3 °C 22.3 °C 1008.1 hPa South 16.1 km/h 36.4 km/h 70.2% 0.0 mm 524 W/m2
14:04 28.4 °C 22.4 °C 1008.1 hPa South 13.4 km/h 36.4 km/h 69.9% 0.0 mm 531 W/m2
14:09 28.7 °C 22.4 °C 1008.1 hPa South 12.2 km/h 28 km/h 69.1% 0.0 mm 529 W/m2
14:14 28.7 °C 22.6 °C 1007.8 hPa South 14.9 km/h 32.3 km/h 69.7% 0.0 mm 527 W/m2
14:19 28.6 °C 22.6 °C 1007.8 hPa SSE 14.1 km/h 28 km/h 70.1% 0.0 mm 524 W/m2
14:24 28.5 °C 22.5 °C 1007.8 hPa South 13.3 km/h 24.1 km/h 70% 0.0 mm 518 W/m2
14:29 28.3 °C 22.1 °C 1007.8 hPa South 13.3 km/h 24.1 km/h 68.7% 0.0 mm 519 W/m2
14:34 28.4 °C 22.3 °C 1007.8 hPa South 12.3 km/h 24.1 km/h 69.2% 0.0 mm 523 W/m2
14:39 28.5 °C 22.4 °C 1007.5 hPa SSE 14.6 km/h 24.1 km/h 69.7% 0.0 mm 522 W/m2
14:44 28.4 °C 22.5 °C 1007.5 hPa South 11.9 km/h 28 km/h 70.1% 0.0 mm 520 W/m2
14:49 28.4 °C 22.3 °C 1007.5 hPa South 13.3 km/h 28 km/h 69.3% 0.0 mm 519 W/m2
14:54 28.4 °C 22.5 °C 1007.1 hPa South 13.1 km/h 32.3 km/h 70.1% 0.0 mm 517 W/m2
14:59 28.5 °C 22.4 °C 1007.1 hPa South 17.2 km/h 28 km/h 69.3% 0.0 mm 521 W/m2
15:04 28.7 °C 22.4 °C 1007.1 hPa South 12 km/h 32.3 km/h 69% 0.0 mm 522 W/m2
15:09 28.9 °C 22.6 °C 1007.1 hPa South 16.2 km/h 32.3 km/h 69% 0.0 mm 522 W/m2
15:14 28.8 °C 22.6 °C 1007.1 hPa South 12.7 km/h 32.3 km/h 69.3% 0.0 mm 521 W/m2
15:19 28.8 °C 22.3 °C 1006.8 hPa South 14.9 km/h 36.4 km/h 68.2% 0.0 mm 518 W/m2
15:24 28.8 °C 22.3 °C 1006.8 hPa SSW 14.9 km/h 28 km/h 68.1% 0.0 mm 521 W/m2
15:29 28.8 °C 22.3 °C 1006.8 hPa South 13.1 km/h 32.3 km/h 68.1% 0.0 mm 518 W/m2
15:34 28.8 °C 22.4 °C 1006.8 hPa SSE 15.4 km/h 32.3 km/h 68.6% 0.0 mm 511 W/m2
15:39 28.8 °C 22.5 °C 1006.8 hPa South 16.1 km/h 32.3 km/h 69% 0.0 mm 510 W/m2
15:44 28.7 °C 22.6 °C 1006.4 hPa SSW 14.8 km/h 24.1 km/h 69.4% 0.0 mm 508 W/m2
15:49 28.6 °C 22.5 °C 1006.4 hPa South 14.3 km/h 28 km/h 69.4% 0.0 mm 508 W/m2
15:54 28.6 °C 22.5 °C 1006.4 hPa South 14.4 km/h 28 km/h 69.3% 0.0 mm 509 W/m2
15:59 28.6 °C 22.6 °C 1006.4 hPa South 17.1 km/h 28 km/h 69.9% 0.0 mm 507 W/m2
16:04 28.7 °C 22.5 °C 1006.4 hPa South 12.4 km/h 28 km/h 69.4% 0.0 mm 497 W/m2
16:09 29.1 °C 22.7 °C 1006.1 hPa South 13.7 km/h 28 km/h 68.4% 0.0 mm 500 W/m2
16:14 29.1 °C 22.6 °C 1006.1 hPa South 13 km/h 28 km/h 67.9% 0.0 mm 498 W/m2
16:19 29 °C 22.6 °C 1006.4 hPa South 14 km/h 28 km/h 68.3% 0.0 mm 497 W/m2
16:24 28.9 °C 22.4 °C 1006.4 hPa SSE 15.9 km/h 32.3 km/h 67.9% 0.0 mm 489 W/m2
16:29 28.7 °C 22.1 °C 1006.1 hPa South 12.2 km/h 32.3 km/h 67.4% 0.0 mm 486 W/m2
16:34 28.7 °C 22 °C 1006.1 hPa South 13.9 km/h 32.3 km/h 67.1% 0.0 mm 482 W/m2
16:39 28.8 °C 22.1 °C 1005.8 hPa South 13.9 km/h 28 km/h 67% 0.0 mm 483 W/m2
16:44 28.8 °C 22.1 °C 1005.8 hPa South 15.1 km/h 24.1 km/h 67% 0.0 mm 472 W/m2
16:49 28.7 °C 22 °C 1006.1 hPa South 12 km/h 28 km/h 67.1% 0.0 mm 468 W/m2
16:54 28.7 °C 22 °C 1006.1 hPa South 14.1 km/h 24.1 km/h 67% 0.0 mm 465 W/m2
16:59 28.7 °C 22 °C 1006.1 hPa South 11.1 km/h 28 km/h 67% 0.0 mm 456 W/m2
17:04 28.7 °C 21.9 °C 1005.8 hPa South 15.6 km/h 28 km/h 66.6% 0.0 mm 454 W/m2
17:09 28.6 °C 22.1 °C 1005.8 hPa South 14.5 km/h 32.3 km/h 68% 0.0 mm 446 W/m2
17:14 28.6 °C 21.9 °C 1005.8 hPa South 11.1 km/h 32.3 km/h 66.9% 0.0 mm 447 W/m2
17:19 28.5 °C 21.8 °C 1005.8 hPa South 12.4 km/h 32.3 km/h 67% 0.0 mm 443 W/m2
17:24 28.5 °C 21.9 °C 1005.4 hPa SSE 12.9 km/h 24.1 km/h 67.7% 0.0 mm 442 W/m2
17:29 28.5 °C 21.9 °C 1005.8 hPa SSE 15.3 km/h 28 km/h 67.7% 0.0 mm 445 W/m2
17:34 28.4 °C 21.9 °C 1005.4 hPa South 12.9 km/h 28 km/h 68% 0.0 mm 446 W/m2
17:39 28.2 °C 21.9 °C 1005.4 hPa South 14.5 km/h 24.1 km/h 68.7% 0.0 mm 449 W/m2
17:44 28.2 °C 21.9 °C 1005.4 hPa South 11.7 km/h 24.1 km/h 69% 0.0 mm 432 W/m2
17:49 28.2 °C 22 °C 1005.4 hPa South 11 km/h 24.1 km/h 69% 0.0 mm 411 W/m2
17:54 28.2 °C 22.2 °C 1005.4 hPa South 13.5 km/h 28 km/h 69.9% 0.0 mm 397 W/m2
17:59 28 °C 22 °C 1005.4 hPa South 15 km/h 24.1 km/h 70% 0.0 mm 395 W/m2
18:04 28 °C 22 °C 1005.1 hPa South 9.1 km/h 24.1 km/h 70% 0.0 mm 399 W/m2
18:09 27.9 °C 22 °C 1005.1 hPa South 9.4 km/h 28 km/h 70.1% 0.0 mm 374 W/m2
18:14 27.9 °C 22.1 °C 1005.4 hPa SSW 12.5 km/h 28 km/h 70.9% 0.0 mm 371 W/m2
18:19 27.5 °C 21.9 °C 1005.1 hPa South 12.1 km/h 24.1 km/h 71.4% 0.0 mm 344 W/m2
18:24 27.4 °C 21.8 °C 1005.1 hPa South 9.7 km/h 20.1 km/h 71.8% 0.0 mm 190 W/m2
18:29 27.3 °C 21.8 °C 1005.1 hPa SSE 10.2 km/h 20.1 km/h 72% 0.0 mm 97 W/m2
18:34 27.1 °C 21.8 °C 1005.1 hPa South 8.8 km/h 20.1 km/h 72.8% 0.0 mm 95 W/m2
18:39 26.5 °C 21.4 °C 1005.1 hPa South 11.5 km/h 20.1 km/h 73.7% 0.0 mm 92 W/m2
18:44 26.3 °C 21.2 °C 1005.1 hPa South 9.1 km/h 20.1 km/h 73.7% 0.0 mm 92 W/m2
18:49 26.3 °C 21.2 °C 1005.1 hPa South 9 km/h 24.1 km/h 73.6% 0.0 mm 86 W/m2
18:54 26.2 °C 21.4 °C 1005.1 hPa South 10.8 km/h 24.1 km/h 75.2% 0.0 mm 84 W/m2
18:59 25.9 °C 21.3 °C 1005.4 hPa SSW 6.3 km/h 20.1 km/h 75.8% 0.0 mm 81 W/m2
19:04 25.8 °C 21.4 °C 1005.1 hPa South 8.3 km/h 24.1 km/h 76.6% 0.0 mm 79 W/m2
19:09 25.8 °C 21.6 °C 1005.1 hPa South 7.7 km/h 16.3 km/h 77.4% 0.0 mm 76 W/m2
19:14 25.8 °C 21.6 °C 1005.1 hPa SSW 6.3 km/h 16.3 km/h 77.3% 0.0 mm 72 W/m2
19:19 25.5 °C 21.3 °C 1005.1 hPa South 8.4 km/h 16.3 km/h 77.3% 0.0 mm 69 W/m2
19:24 25.4 °C 21.6 °C 1005.1 hPa South 5.9 km/h 16.3 km/h 79.1% 0.0 mm 65 W/m2
19:29 25.4 °C 21.7 °C 1005.1 hPa South 4.9 km/h 16.3 km/h 80% 0.0 mm 61 W/m2
19:34 25.4 °C 21.9 °C 1005.1 hPa South 6.1 km/h 16.3 km/h 81.2% 0.0 mm 58 W/m2
19:39 25 °C 21.9 °C 1005.1 hPa SSE 6.9 km/h 16.3 km/h 82.7% 0.0 mm 53 W/m2
19:44 24.9 °C 22 °C 1004.7 hPa South 5.8 km/h 16.3 km/h 83.9% 0.0 mm 49 W/m2
19:49 24.9 °C 22.2 °C 1005.1 hPa SSE 8.1 km/h 16.3 km/h 84.8% 0.0 mm 45 W/m2
19:54 24.8 °C 22.1 °C 1005.1 hPa South 8.3 km/h 24.1 km/h 85% 0.0 mm 41 W/m2
19:59 24.5 °C 21.7 °C 1005.1 hPa South 6.9 km/h 20.1 km/h 84.4% 0.0 mm 37 W/m2
20:04 24.4 °C 21.5 °C 1005.1 hPa SSE 5.8 km/h 16.3 km/h 84.2% 0.0 mm 33 W/m2
20:09 24.4 °C 21.6 °C 1005.1 hPa South 7.9 km/h 20.1 km/h 84.4% 0.0 mm 29 W/m2
20:14 24.3 °C 21.6 °C 1005.1 hPa South 5.4 km/h 16.3 km/h 85% 0.0 mm 25 W/m2
20:19 24.1 °C 21.6 °C 1005.1 hPa South 4.6 km/h 16.3 km/h 85.9% 0.0 mm 21 W/m2
20:24 23.9 °C 21.5 °C 1005.4 hPa South 8 km/h 16.3 km/h 86.4% 0.0 mm 16 W/m2
20:29 23.9 °C 21.6 °C 1005.1 hPa South 5.9 km/h 16.3 km/h 87% 0.0 mm 11 W/m2
20:34 23.9 °C 21.6 °C 1005.1 hPa South 5.4 km/h 16.3 km/h 87% 0.0 mm 8 W/m2
20:39 23.8 °C 21.5 °C 1005.1 hPa South 5.5 km/h 16.3 km/h 87% 0.0 mm 5 W/m2
20:44 23.7 °C 21.4 °C 1005.4 hPa South 5.4 km/h 16.3 km/h 87% 0.0 mm 3 W/m2
20:49 23.7 °C 21.4 °C 1005.1 hPa South 5.7 km/h 16.3 km/h 87% 0.0 mm 0 W/m2
20:54 23.6 °C 21.3 °C 1005.4 hPa South 7.2 km/h 16.3 km/h 87% 0.0 mm 0 W/m2
20:59 23.5 °C 21.4 °C 1005.4 hPa SSW 5.3 km/h 16.3 km/h 87.9% 0.0 mm 0 W/m2
21:04 23.4 °C 21.3 °C 1005.4 hPa South 6.7 km/h 16.3 km/h 88% 0.0 mm 0 W/m2
21:09 23.4 °C 21.3 °C 1005.4 hPa South 6.5 km/h 20.1 km/h 88% 0.0 mm 0 W/m2
21:14 23.4 °C 21.4 °C 1005.4 hPa South 4.4 km/h 20.1 km/h 88.3% 0.0 mm 0 W/m2
21:19 23.4 °C 21.5 °C 1005.4 hPa South 2.8 km/h 12.2 km/h 88.8% 0.0 mm 0 W/m2
21:24 23.4 °C 21.3 °C 1005.8 hPa South 4.5 km/h 12.2 km/h 88% 0.0 mm 0 W/m2
21:29 23.3 °C 21.2 °C 1005.8 hPa South 2.3 km/h 12.2 km/h 88% 0.0 mm 0 W/m2
21:34 23.3 °C 21.2 °C 1005.8 hPa South 3.7 km/h 12.2 km/h 88% 0.0 mm 0 W/m2
21:39 23.2 °C 21.2 °C 1005.8 hPa South 6.9 km/h 16.3 km/h 88.1% 0.0 mm 0 W/m2
21:44 23.1 °C 21.2 °C 1005.8 hPa SSE 2.8 km/h 12.2 km/h 89% 0.0 mm 0 W/m2
21:49 23.1 °C 21.2 °C 1005.8 hPa South 2.4 km/h 7.9 km/h 89% 0.0 mm 0 W/m2
21:54 23.1 °C 21.2 °C 1006.1 hPa South 5.3 km/h 12.2 km/h 89% 0.0 mm 0 W/m2
21:59 23.2 °C 21.2 °C 1006.1 hPa South 5.4 km/h 16.3 km/h 88.9% 0.0 mm 0 W/m2
22:04 23.2 °C 21.1 °C 1006.1 hPa SSW 4.2 km/h 16.3 km/h 87.9% 0.0 mm 0 W/m2
22:09 23.2 °C 20.9 °C 1006.1 hPa South 4.8 km/h 12.2 km/h 87% 0.0 mm 0 W/m2
22:14 23.2 °C 20.8 °C 1006.1 hPa SSE 3.7 km/h 16.3 km/h 86.4% 0.0 mm 0 W/m2
22:19 23.2 °C 20.6 °C 1006.4 hPa South 0.7 km/h 12.2 km/h 85.3% 0.0 mm 0 W/m2
22:24 23.2 °C 20.4 °C 1006.1 hPa South 1.6 km/h 7.9 km/h 84.7% 0.0 mm 0 W/m2
22:29 23.2 °C 20.3 °C 1006.4 hPa South 6.1 km/h 16.3 km/h 84% 0.0 mm 0 W/m2
22:34 23.2 °C 20.2 °C 1006.4 hPa South 2.5 km/h 7.9 km/h 83.1% 0.0 mm 0 W/m2
22:39 23.2 °C 20.2 °C 1006.4 hPa South 2.7 km/h 7.9 km/h 83.2% 0.0 mm 0 W/m2
22:44 23.3 °C 20.2 °C 1006.4 hPa SSE 2.5 km/h 12.2 km/h 83% 0.0 mm 0 W/m2
22:49 23.2 °C 19.8 °C 1006.4 hPa SSE 3.2 km/h 16.3 km/h 81.3% 0.0 mm 0 W/m2
22:54 23.2 °C 20 °C 1006.8 hPa South 3.1 km/h 12.2 km/h 82.2% 0.0 mm 0 W/m2
22:59 23.2 °C 20.1 °C 1006.8 hPa South 5.3 km/h 16.3 km/h 82.8% 0.0 mm 0 W/m2
23:04 23.1 °C 20.1 °C 1006.8 hPa South 3.8 km/h 16.3 km/h 83% 0.0 mm 0 W/m2
23:09 23 °C 20 °C 1006.8 hPa SSE 3.3 km/h 12.2 km/h 83% 0.0 mm 0 W/m2
23:14 23 °C 20.1 °C 1006.8 hPa South 4 km/h 12.2 km/h 83.7% 0.0 mm 0 W/m2
23:19 22.9 °C 20 °C 1006.8 hPa South 6.1 km/h 12.2 km/h 84% 0.0 mm 0 W/m2
23:24 22.7 °C 19.8 °C 1006.8 hPa South 5.7 km/h 12.2 km/h 84% 0.0 mm 0 W/m2
23:29 22.6 °C 19.8 °C 1007.1 hPa South 5.6 km/h 16.3 km/h 84.6% 0.0 mm 0 W/m2
23:34 22.6 °C 19.8 °C 1007.1 hPa SSW 8 km/h 16.3 km/h 84.1% 0.0 mm 0 W/m2
23:39 22.6 °C 19.7 °C 1007.1 hPa South 9.5 km/h 20.1 km/h 83.7% 0.0 mm 0 W/m2
23:44 22.6 °C 19.6 °C 1007.1 hPa South 9.4 km/h 20.1 km/h 83% 0.0 mm 0 W/m2
23:49 22.6 °C 19.6 °C 1007.1 hPa SSE 8.3 km/h 16.3 km/h 83% 0.0 mm 0 W/m2
23:54 22.6 °C 19.6 °C 1007.1 hPa South 9.2 km/h 16.3 km/h 82.9% 0.0 mm 0 W/m2
23:59 22.6 °C 19.6 °C 1007.1 hPa South 8.4 km/h 16.3 km/h 82.7% 0.0 mm 0 W/m2
Juneau County Weather
Compliments of Weather Underground - 2 mb